Time;durP1;ratioP1;P1;durP2;ratioP2;P2;SDS_P1;SDS_P2;PMS_P1;PMS_P2;Temp;Humidity;BMP_temperature;BMP_pressure;BME280_temperature;BME280_humidity;BME280_pressure;Samples;Min_cycle;Max_cycle;Signal;HPM_P1;HPM_P2
2022/04/07 00:01:16;;;;;;;1.05;0.95;;;18.20;44.90;;;;;;5085041;28;47064;-21
2022/04/07 00:03:42;;;;;;;1.02;1.00;;;18.20;44.90;;;;;;5084916;28;46904;-21
2022/04/07 00:06:10;;;;;;;1.05;1.05;;;18.20;44.80;;;;;;5085413;28;46854;-21
2022/04/07 00:08:36;;;;;;;1.60;0.90;;;18.20;44.80;;;;;;5087719;28;46909;-21
2022/04/07 00:11:04;;;;;;;2.30;1.00;;;18.20;44.90;;;;;;5088638;28;47850;-21
2022/04/07 00:13:31;;;;;;;1.20;1.10;;;18.20;44.90;;;;;;5088366;28;46827;-21
2022/04/07 00:15:59;;;;;;;0.90;0.90;;;18.20;44.90;;;;;;5088624;28;46945;-21
2022/04/07 00:18:26;;;;;;;1.08;0.90;;;18.20;44.90;;;;;;5088908;28;46937;-21
2022/04/07 00:20:53;;;;;;;0.80;0.77;;;18.20;44.90;;;;;;5088635;28;46940;-21
2022/04/07 00:23:19;;;;;;;1.20;0.98;;;18.20;44.90;;;;;;5088457;28;47133;-20
2022/04/07 00:25:46;;;;;;;0.82;0.82;;;18.10;44.90;;;;;;5088618;28;46953;-21
2022/04/07 00:28:14;;;;;;;0.80;0.80;;;18.10;44.90;;;;;;5088336;28;46855;-21
2022/04/07 00:30:41;;;;;;;0.90;0.90;;;18.10;44.90;;;;;;5088245;28;46806;-21
2022/04/07 00:33:08;;;;;;;1.00;0.90;;;18.10;44.90;;;;;;5088426;28;47061;-20
2022/04/07 00:35:35;;;;;;;0.93;0.90;;;18.10;44.90;;;;;;5088168;28;46864;-21
2022/04/07 00:38:01;;;;;;;0.73;0.73;;;18.10;44.90;;;;;;5088559;28;47180;-21
2022/04/07 00:40:28;;;;;;;1.05;1.00;;;18.10;44.90;;;;;;5088472;28;47897;-21
2022/04/07 00:42:55;;;;;;;1.05;1.02;;;18.00;44.80;;;;;;5088410;28;47003;-20
2022/04/07 00:45:23;;;;;;;1.15;0.93;;;18.00;44.90;;;;;;5088357;28;46707;-21
2022/04/07 00:47:51;;;;;;;0.90;0.90;;;18.00;44.80;;;;;;5088338;28;47302;-21
2022/04/07 00:50:18;;;;;;;1.17;0.88;;;18.00;44.80;;;;;;5088234;28;47935;-21
2022/04/07 00:52:46;;;;;;;0.85;0.85;;;18.00;44.90;;;;;;5087631;28;46778;-20
2022/04/07 00:55:13;;;;;;;0.85;0.85;;;18.00;44.90;;;;;;5088383;28;47021;-21
2022/04/07 00:57:40;;;;;;;0.77;0.77;;;18.00;44.90;;;;;;5087915;28;46905;-21
2022/04/07 01:00:08;;;;;;;0.98;0.80;;;18.00;44.90;;;;;;5088065;28;47074;-21
2022/04/07 01:02:36;;;;;;;1.00;1.00;;;18.00;44.90;;;;;;5087989;28;47463;-20
2022/04/07 01:05:03;;;;;;;0.90;0.90;;;18.00;45.00;;;;;;5087800;28;46996;-21
2022/04/07 01:07:32;;;;;;;0.80;0.80;;;18.00;45.00;;;;;;5087860;28;47305;-20
2022/04/07 01:09:59;;;;;;;0.70;0.70;;;18.00;45.00;;;;;;5087609;28;49066;-20
2022/04/07 01:12:25;;;;;;;0.70;0.70;;;18.00;45.10;;;;;;5087709;28;46883;-20
2022/04/07 01:14:56;;;;;;;0.63;0.63;;;18.00;45.00;;;;;;5087753;28;46836;-20
2022/04/07 01:17:23;;;;;;;0.70;0.70;;;17.90;45.00;;;;;;5087961;28;47260;-20
2022/04/07 01:19:51;;;;;;;0.70;0.70;;;17.90;45.00;;;;;;5087189;27;48237;-21
2022/04/07 01:22:18;;;;;;;0.70;0.70;;;17.90;45.00;;;;;;5087824;28;47142;-21
2022/04/07 01:24:47;;;;;;;0.80;0.80;;;17.90;45.00;;;;;;5087751;28;46932;-21
2022/04/07 01:27:13;;;;;;;0.73;0.73;;;17.90;45.00;;;;;;5087600;28;46912;-20
2022/04/07 01:29:40;;;;;;;0.73;0.73;;;17.90;45.00;;;;;;5087564;28;46909;-21
2022/04/07 01:32:09;;;;;;;0.70;0.68;;;17.90;45.00;;;;;;5087462;28;47404;-20
2022/04/07 01:34:36;;;;;;;0.85;0.85;;;17.90;45.00;;;;;;5087524;28;46867;-21
2022/04/07 01:37:03;;;;;;;0.77;0.70;;;17.90;45.00;;;;;;5087671;28;47290;-19
2022/04/07 01:39:30;;;;;;;4.20;0.75;;;17.90;45.00;;;;;;5087399;28;48229;-21
2022/04/07 01:41:58;;;;;;;0.70;0.70;;;17.90;45.00;;;;;;5087628;28;46866;-21
2022/04/07 01:44:24;;;;;;;0.60;0.60;;;17.90;45.00;;;;;;5087725;28;46935;-20
2022/04/07 01:46:51;;;;;;;0.73;0.70;;;17.90;45.00;;;;;;5087417;28;46921;-20
2022/04/07 01:49:18;;;;;;;0.70;0.70;;;17.90;45.00;;;;;;5086934;28;49241;-20
2022/04/07 01:51:45;;;;;;;1.38;0.60;;;17.80;45.00;;;;;;5087197;28;46823;-20
2022/04/07 01:54:12;;;;;;;0.88;0.60;;;17.80;45.00;;;;;;5086477;28;46726;-20
2022/04/07 01:56:39;;;;;;;0.70;0.70;;;17.80;44.90;;;;;;5087381;28;46949;-21
2022/04/07 01:59:08;;;;;;;0.60;0.60;;;17.80;45.00;;;;;;5086944;28;48656;-20
2022/04/07 02:01:35;;;;;;;0.60;0.60;;;17.80;45.00;;;;;;5087071;28;46823;-21
2022/04/07 02:04:01;;;;;;;0.60;0.60;;;17.80;45.00;;;;;;5087154;28;46891;-20
2022/04/07 02:06:28;;;;;;;0.55;0.55;;;17.80;45.00;;;;;;5087080;28;47310;-20
2022/04/07 02:08:56;;;;;;;0.70;0.70;;;17.80;45.00;;;;;;5086558;28;48717;-21
2022/04/07 02:11:22;;;;;;;0.70;0.63;;;17.80;44.90;;;;;;5087040;28;46887;-21
2022/04/07 02:13:49;;;;;;;0.57;0.57;;;17.80;45.00;;;;;;5086947;28;46913;-20
2022/04/07 02:16:19;;;;;;;0.63;0.60;;;17.80;44.90;;;;;;5087264;28;46903;-21
2022/04/07 02:18:45;;;;;;;0.60;0.60;;;17.80;45.00;;;;;;5086568;28;48194;-20
2022/04/07 02:21:12;;;;;;;0.60;0.60;;;17.80;45.00;;;;;;5086836;28;46929;-21
2022/04/07 02:23:42;;;;;;;0.40;0.40;;;17.70;45.00;;;;;;5086649;28;46835;-20
2022/04/07 02:26:11;;;;;;;0.70;0.70;;;17.80;45.00;;;;;;5087085;28;46914;-20
2022/04/07 02:28:38;;;;;;;0.50;0.50;;;17.70;45.00;;;;;;5086128;28;46927;-21
2022/04/07 02:31:04;;;;;;;0.70;0.70;;;17.70;45.00;;;;;;5085602;28;46903;-20
2022/04/07 02:33:34;;;;;;;1.05;0.65;;;17.70;45.00;;;;;;5086550;28;46960;-20
2022/04/07 02:36:01;;;;;;;0.60;0.50;;;17.70;45.00;;;;;;5086558;28;47275;-20
2022/04/07 02:38:27;;;;;;;0.50;0.50;;;17.70;45.00;;;;;;5086328;28;46957;-20
2022/04/07 02:40:54;;;;;;;1.15;0.70;;;17.70;45.10;;;;;;5086206;28;46978;-20
2022/04/07 02:43:21;;;;;;;0.60;0.60;;;17.70;45.10;;;;;;5086100;28;46904;-20
2022/04/07 02:45:47;;;;;;;0.60;0.60;;;17.70;45.00;;;;;;5086431;28;47155;-21
2022/04/07 02:48:14;;;;;;;0.70;0.70;;;17.70;45.10;;;;;;5086242;28;47055;-20
2022/04/07 02:50:42;;;;;;;0.60;0.60;;;17.70;45.00;;;;;;5086285;28;47533;-20
2022/04/07 02:53:09;;;;;;;0.70;0.70;;;17.60;45.10;;;;;;5085770;28;46840;-20
2022/04/07 02:55:36;;;;;;;0.50;0.50;;;17.70;45.10;;;;;;5086414;28;47056;-20
2022/04/07 02:58:02;;;;;;;0.40;0.40;;;17.60;45.10;;;;;;5085900;28;48143;-20
2022/04/07 03:00:29;;;;;;;0.70;0.70;;;17.60;45.10;;;;;;5085987;28;46951;-21
2022/04/07 03:02:56;;;;;;;0.50;0.50;;;17.60;45.00;;;;;;5085982;28;46991;-20
2022/04/07 03:05:23;;;;;;;1.05;0.85;;;17.60;45.00;;;;;;5086018;28;47173;-21
2022/04/07 03:07:51;;;;;;;0.70;0.52;;;17.60;45.10;;;;;;5086002;28;48148;-21
2022/04/07 03:10:17;;;;;;;0.50;0.50;;;17.60;45.00;;;;;;5086216;28;47474;-21
2022/04/07 03:12:44;;;;;;;0.52;0.52;;;17.60;45.00;;;;;;5085891;28;47083;-20
2022/04/07 03:15:11;;;;;;;0.50;0.50;;;17.60;45.00;;;;;;5086262;28;47053;-21
2022/04/07 03:17:38;;;;;;;0.50;0.50;;;17.60;45.10;;;;;;5085492;28;48916;-21
2022/04/07 03:20:06;;;;;;;0.40;0.40;;;17.60;45.10;;;;;;5085871;28;46779;-20
2022/04/07 03:22:33;;;;;;;0.50;0.50;;;17.60;45.10;;;;;;5085444;28;46854;-20
2022/04/07 03:25:01;;;;;;;0.50;0.50;;;17.60;45.10;;;;;;5086078;28;46904;-21
2022/04/07 03:27:27;;;;;;;0.40;0.40;;;17.50;45.10;;;;;;5085491;28;48791;-20
2022/04/07 03:29:54;;;;;;;0.47;0.47;;;17.50;45.10;;;;;;5085810;28;46918;-20
2022/04/07 03:32:21;;;;;;;0.38;0.38;;;17.50;45.10;;;;;;5085620;28;46874;-20
2022/04/07 03:34:47;;;;;;;1.00;0.60;;;17.50;45.00;;;;;;5085627;28;47275;-20
2022/04/07 03:37:15;;;;;;;0.60;0.50;;;17.50;45.00;;;;;;5085620;28;48200;-20
2022/04/07 03:39:42;;;;;;;0.57;0.57;;;17.50;45.00;;;;;;5085580;28;46886;-20
2022/04/07 03:42:10;;;;;;;0.40;0.40;;;17.50;45.00;;;;;;5085717;28;46997;-20
2022/04/07 03:44:37;;;;;;;0.60;0.60;;;17.50;45.00;;;;;;5085586;28;46897;-21
2022/04/07 03:47:04;;;;;;;0.40;0.40;;;17.50;45.00;;;;;;5085225;28;48698;-21
2022/04/07 03:49:30;;;;;;;0.50;0.50;;;17.50;45.00;;;;;;5085181;28;47049;-21
2022/04/07 03:51:57;;;;;;;0.52;0.40;;;17.50;45.00;;;;;;5085662;28;46946;-20
2022/04/07 03:54:24;;;;;;;0.60;0.60;;;17.50;45.00;;;;;;5085029;28;47204;-21
2022/04/07 03:56:51;;;;;;;0.40;0.40;;;17.50;45.00;;;;;;5085514;28;48132;-21
2022/04/07 03:59:19;;;;;;;0.50;0.50;;;17.50;45.00;;;;;;5084782;28;46797;-20
2022/04/07 04:01:46;;;;;;;0.63;0.50;;;17.50;45.10;;;;;;5085367;28;46886;-21
2022/04/07 04:04:13;;;;;;;0.43;0.40;;;17.50;45.00;;;;;;5084976;28;46839;-21
2022/04/07 04:06:40;;;;;;;0.47;0.47;;;17.50;45.10;;;;;;5085227;28;47853;-20
2022/04/07 04:09:07;;;;;;;1.75;0.50;;;17.50;45.10;;;;;;5085133;28;46884;-20
2022/04/07 04:11:34;;;;;;;0.40;0.40;;;17.50;45.10;;;;;;5085249;28;47069;-20
2022/04/07 04:14:01;;;;;;;0.50;0.50;;;17.50;45.10;;;;;;5085184;28;46979;-20
2022/04/07 04:16:30;;;;;;;0.50;0.50;;;17.40;45.10;;;;;;5085020;28;48793;-20
2022/04/07 04:18:57;;;;;;;0.40;0.40;;;17.40;45.00;;;;;;5084863;28;46889;-20
2022/04/07 04:21:24;;;;;;;0.40;0.40;;;17.40;45.10;;;;;;5084856;28;46844;-21
2022/04/07 04:23:50;;;;;;;0.40;0.40;;;17.40;45.00;;;;;;5085646;28;47274;-20
2022/04/07 04:26:17;;;;;;;0.40;0.40;;;17.40;45.10;;;;;;5085180;28;48114;-21
2022/04/07 04:28:44;;;;;;;0.30;0.30;;;17.40;45.10;;;;;;5084495;28;46893;-21
2022/04/07 04:31:10;;;;;;;0.55;0.40;;;17.40;45.10;;;;;;5085152;28;46847;-21
2022/04/07 04:33:39;;;;;;;0.40;0.40;;;17.40;45.10;;;;;;5085262;28;47002;-20
2022/04/07 04:36:05;;;;;;;0.40;0.40;;;17.40;45.10;;;;;;5085025;28;49134;-20
2022/04/07 04:38:32;;;;;;;0.30;0.30;;;17.40;45.10;;;;;;5084605;28;47002;-21
2022/04/07 04:40:59;;;;;;;0.22;0.22;;;17.40;45.10;;;;;;5084935;28;46819;-20
2022/04/07 04:43:26;;;;;;;0.30;0.30;;;17.40;45.10;;;;;;5084993;28;47295;-20
2022/04/07 04:45:52;;;;;;;0.47;0.40;;;17.40;45.10;;;;;;5084547;28;47967;-20
2022/04/07 04:48:19;;;;;;;0.32;0.32;;;17.40;45.10;;;;;;5084477;28;47151;-20
2022/04/07 04:50:47;;;;;;;0.55;0.55;;;17.40;45.10;;;;;;5084526;28;46898;-20
2022/04/07 04:53:14;;;;;;;0.40;0.40;;;17.40;45.20;;;;;;5084448;27;46878;-20
2022/04/07 04:55:41;;;;;;;0.40;0.40;;;17.30;45.10;;;;;;5087859;28;47981;-21
2022/04/07 04:58:07;;;;;;;0.40;0.40;;;17.30;45.20;;;;;;5087968;28;46958;-20
2022/04/07 05:00:34;;;;;;;0.50;0.50;;;17.30;45.10;;;;;;5087952;28;46787;-20
2022/04/07 05:03:01;;;;;;;0.38;0.38;;;17.30;45.10;;;;;;5087883;28;47121;-20
2022/04/07 05:05:27;;;;;;;0.30;0.30;;;17.30;45.10;;;;;;5088066;28;48204;-20
2022/04/07 05:07:55;;;;;;;0.40;0.40;;;17.30;45.10;;;;;;5087705;28;46942;-21
2022/04/07 05:10:22;;;;;;;0.55;0.50;;;17.30;45.20;;;;;;5087940;28;46942;-21
2022/04/07 05:12:49;;;;;;;0.43;0.43;;;17.30;45.10;;;;;;5087658;28;46885;-20
2022/04/07 05:15:15;;;;;;;0.30;0.30;;;17.30;45.20;;;;;;5087797;28;48043;-21
2022/04/07 05:17:42;;;;;;;0.63;0.32;;;17.30;45.20;;;;;;5087611;28;47005;-21
2022/04/07 05:20:10;;;;;;;0.32;0.32;;;17.30;45.10;;;;;;5087570;28;46869;-21
2022/04/07 05:22:37;;;;;;;0.40;0.40;;;17.30;45.10;;;;;;5087897;28;47265;-20
2022/04/07 05:25:05;;;;;;;0.40;0.38;;;17.30;45.20;;;;;;5087614;28;48115;-20
2022/04/07 05:27:32;;;;;;;0.30;0.30;;;17.30;45.10;;;;;;5086555;28;47104;-20
2022/04/07 05:29:59;;;;;;;0.32;0.32;;;17.30;45.10;;;;;;5086792;28;46847;-21
2022/04/07 05:32:26;;;;;;;0.50;0.50;;;17.30;45.10;;;;;;5087206;28;46921;-21
2022/04/07 05:34:53;;;;;;;0.20;0.20;;;17.30;45.10;;;;;;5087436;28;49031;-21
2022/04/07 05:37:19;;;;;;;0.30;0.30;;;17.30;45.10;;;;;;5087466;28;47029;-21
2022/04/07 05:39:46;;;;;;;0.30;0.30;;;17.30;45.00;;;;;;5087151;28;46986;-21
2022/04/07 05:42:14;;;;;;;0.30;0.30;;;17.30;45.00;;;;;;5087627;28;46855;-21
2022/04/07 05:44:41;;;;;;;0.47;0.47;;;17.30;44.90;;;;;;5087468;28;47091;-21
2022/04/07 05:47:08;;;;;;;0.35;0.32;;;17.40;45.00;;;;;;5087222;28;47315;-20
2022/04/07 05:49:34;;;;;;;0.50;0.40;;;17.30;44.90;;;;;;5087044;28;46843;-20
2022/04/07 05:52:03;;;;;;;0.20;0.20;;;17.30;45.00;;;;;;5087460;28;47062;-20
2022/04/07 05:54:30;;;;;;;0.30;0.30;;;17.30;44.90;;;;;;5087125;28;48156;-21
2022/04/07 05:56:58;;;;;;;0.30;0.30;;;17.30;44.90;;;;;;5087059;28;46898;-20
2022/04/07 05:59:26;;;;;;;0.25;0.25;;;17.30;44.90;;;;;;5081253;28;46986;-21
2022/04/07 06:01:53;;;;;;;0.45;0.30;;;17.30;44.90;;;;;;5066702;28;47077;-21
2022/04/07 06:04:19;;;;;;;0.30;0.30;;;17.40;45.00;;;;;;5066419;28;47052;-20
2022/04/07 06:06:46;;;;;;;0.30;0.30;;;17.30;44.90;;;;;;5066611;28;47272;-20
2022/04/07 06:09:13;;;;;;;0.20;0.20;;;17.30;45.00;;;;;;5066515;28;46874;-21
2022/04/07 06:11:39;;;;;;;0.20;0.20;;;17.30;45.00;;;;;;5066666;28;47102;-20
2022/04/07 06:14:06;;;;;;;0.20;0.20;;;17.40;45.00;;;;;;5066186;28;49075;-20
2022/04/07 06:16:34;;;;;;;0.25;0.25;;;17.30;44.90;;;;;;5066391;28;47438;-21
2022/04/07 06:19:01;;;;;;;0.20;0.20;;;17.30;45.00;;;;;;5066091;28;47021;-20
2022/04/07 06:21:29;;;;;;;0.20;0.20;;;17.40;45.00;;;;;;5066483;28;47121;-21
2022/04/07 06:23:56;;;;;;;0.30;0.30;;;17.30;45.00;;;;;;5065226;28;47949;-21
2022/04/07 06:26:23;;;;;;;0.38;0.32;;;17.30;45.00;;;;;;5065681;28;47245;-21
2022/04/07 06:28:50;;;;;;;0.50;0.38;;;17.30;44.90;;;;;;5065384;28;47014;-21
2022/04/07 06:31:16;;;;;;;0.20;0.20;;;17.30;45.00;;;;;;5065518;28;47286;-21
2022/04/07 06:33:44;;;;;;;0.63;0.25;;;17.30;44.90;;;;;;5065100;28;47869;-21
2022/04/07 06:36:11;;;;;;;0.30;0.30;;;17.30;44.90;;;;;;5065373;28;47255;-21
2022/04/07 06:38:38;;;;;;;0.28;0.28;;;17.30;44.90;;;;;;5065263;28;47052;-21
2022/04/07 06:41:07;;;;;;;0.20;0.20;;;17.30;44.80;;;;;;5065629;28;46925;-21
2022/04/07 06:43:34;;;;;;;0.20;0.20;;;17.30;44.90;;;;;;5064197;28;49494;-16
2022/04/07 06:46:01;;;;;;;0.30;0.30;;;17.40;44.80;;;;;;5064409;28;47073;-17
2022/04/07 06:48:28;;;;;;;0.30;0.30;;;17.40;44.60;;;;;;5064182;28;46858;-16
2022/04/07 06:50:56;;;;;;;0.30;0.30;;;17.40;44.80;;;;;;5064676;28;47295;-16
2022/04/07 06:53:23;;;;;;;0.20;0.20;;;17.40;44.80;;;;;;5064859;28;48157;-15
2022/04/07 06:55:49;;;;;;;0.22;0.22;;;17.40;44.70;;;;;;5065643;28;46969;-17
2022/04/07 06:58:17;;;;;;;0.43;0.43;;;17.40;44.70;;;;;;5065194;28;46895;-17
2022/04/07 07:00:45;;;;;;;0.43;0.20;;;17.40;44.30;;;;;;5065352;28;46932;-15
2022/04/07 07:03:12;;;;;;;0.20;0.20;;;17.40;44.60;;;;;;5065397;28;48906;-17
2022/04/07 07:05:38;;;;;;;0.30;0.30;;;17.40;44.70;;;;;;5065529;28;47016;-16
2022/04/07 07:08:14;;;;;;;0.40;0.40;;;17.40;44.70;;;;;;5065305;28;46911;-16
2022/04/07 07:10:41;;;;;;;0.20;0.20;;;17.40;44.80;;;;;;5065637;28;47129;-16
2022/04/07 07:13:07;;;;;;;0.20;0.20;;;17.30;44.60;;;;;;5064943;28;49118;-16
2022/04/07 07:15:34;;;;;;;0.30;0.30;;;17.40;44.70;;;;;;5065754;28;47286;-16
2022/04/07 07:18:01;;;;;;;0.55;0.45;;;17.40;44.70;;;;;;5064677;28;46879;-16
2022/04/07 07:20:28;;;;;;;0.32;0.25;;;17.40;44.70;;;;;;5065404;28;46944;-16
2022/04/07 07:22:54;;;;;;;0.22;0.22;;;17.40;44.70;;;;;;5064836;28;47901;-15
2022/04/07 07:25:23;;;;;;;0.30;0.30;;;17.40;44.60;;;;;;5065415;28;46974;-16
2022/04/07 07:27:50;;;;;;;0.38;0.38;;;17.40;44.60;;;;;;5065140;28;46882;-16
2022/04/07 07:30:17;;;;;;;0.20;0.20;;;17.40;44.60;;;;;;5065589;28;46911;-15
2022/04/07 07:32:45;;;;;;;0.80;0.30;;;17.40;44.70;;;;;;5064902;28;49107;-16
2022/04/07 07:35:11;;;;;;;0.40;0.40;;;17.40;44.90;;;;;;5063543;28;47057;-16
2022/04/07 07:37:47;;;;;;;0.28;0.28;;;17.40;44.80;;;;;;5065009;28;46962;-16
2022/04/07 07:40:14;;;;;;;0.30;0.30;;;17.40;44.80;;;;;;5065556;28;47023;-16
2022/04/07 07:42:42;;;;;;;3.00;0.40;;;17.40;44.90;;;;;;5064895;28;46910;-16
2022/04/07 07:45:09;;;;;;;0.68;0.38;;;17.40;44.90;;;;;;5064840;28;46890;-15
2022/04/07 07:47:36;;;;;;;4.32;0.60;;;17.40;44.90;;;;;;5064006;28;46871;-16
2022/04/07 07:50:03;;;;;;;0.28;0.28;;;17.40;45.00;;;;;;5064123;28;46970;-15
2022/04/07 07:52:30;;;;;;;0.20;0.20;;;17.40;45.00;;;;;;5065070;28;49084;-16
2022/04/07 07:54:56;;;;;;;0.30;0.30;;;17.40;45.00;;;;;;5064696;28;47054;-15
2022/04/07 07:57:23;;;;;;;0.30;0.30;;;17.40;44.90;;;;;;5063923;28;46979;-16
2022/04/07 07:59:51;;;;;;;1.13;0.40;;;17.40;44.90;;;;;;5063314;28;46883;-17
2022/04/07 08:02:19;;;;;;;0.32;0.28;;;17.40;45.00;;;;;;5064355;28;48001;-20
2022/04/07 08:04:45;;;;;;;0.75;0.13;;;17.40;45.00;;;;;;5063997;28;47053;-20
2022/04/07 08:07:12;;;;;;;0.30;0.30;;;17.40;45.00;;;;;;5063662;28;47131;-20
2022/04/07 08:09:39;;;;;;;0.35;0.30;;;17.40;45.00;;;;;;5062892;28;47035;-21
2022/04/07 08:12:06;;;;;;;1.25;0.20;;;17.40;45.00;;;;;;5064217;28;48249;-17
2022/04/07 08:14:33;;;;;;;0.30;0.20;;;17.40;45.00;;;;;;5063765;28;47152;-16
2022/04/07 08:17:01;;;;;;;0.45;0.28;;;17.40;44.90;;;;;;5064220;28;46982;-16
2022/04/07 08:19:28;;;;;;;1.13;0.30;;;17.40;45.10;;;;;;5064013;28;46929;-16
2022/04/07 08:21:55;;;;;;;0.20;0.20;;;17.40;45.10;;;;;;5064539;28;48232;-16
2022/04/07 08:24:22;;;;;;;0.20;0.20;;;17.40;45.00;;;;;;5063377;28;47302;-16
2022/04/07 08:26:49;;;;;;;0.20;0.20;;;17.40;45.10;;;;;;5062671;28;46974;-16
2022/04/07 08:29:15;;;;;;;0.30;0.30;;;17.40;45.10;;;;;;5064942;28;47451;-16
2022/04/07 08:31:42;;;;;;;0.20;0.20;;;17.40;45.20;;;;;;5066018;28;47952;-16
2022/04/07 08:34:11;;;;;;;4.32;0.40;;;17.40;45.00;;;;;;5064735;28;47484;-16
2022/04/07 08:36:39;;;;;;;0.22;0.22;;;17.40;45.00;;;;;;5065082;28;46988;-16
2022/04/07 08:39:06;;;;;;;0.40;0.40;;;17.40;45.10;;;;;;5064414;28;47289;-15
2022/04/07 08:41:34;;;;;;;0.30;0.30;;;17.40;45.10;;;;;;5067611;28;48931;-15
2022/04/07 08:44:01;;;;;;;3.85;0.70;;;17.40;45.60;;;;;;5067166;28;47343;-15
2022/04/07 08:46:28;;;;;;;0.28;0.28;;;17.40;45.10;;;;;;5066602;28;47258;-15
2022/04/07 08:48:55;;;;;;;0.38;0.20;;;17.40;45.00;;;;;;5065412;28;46964;-16
2022/04/07 08:51:23;;;;;;;0.30;0.30;;;17.50;45.10;;;;;;5066848;28;47948;-15
2022/04/07 08:53:50;;;;;;;2.03;0.22;;;17.40;45.10;;;;;;5067385;28;47278;-15
2022/04/07 08:56:17;;;;;;;10.10;1.90;;;17.50;45.10;;;;;;5067565;28;46886;-17
2022/04/07 08:58:44;;;;;;;7.93;0.70;;;17.50;45.50;;;;;;5067445;28;47315;-15
2022/04/07 09:01:10;;;;;;;2.22;0.50;;;17.50;45.50;;;;;;5067109;28;47363;-15
2022/04/07 09:03:37;;;;;;;6.30;0.70;;;17.50;45.40;;;;;;5067186;28;47442;-15
2022/04/07 09:06:05;;;;;;;2.13;0.45;;;17.50;45.40;;;;;;5067756;28;46857;-16
2022/04/07 09:08:34;;;;;;;1.35;0.32;;;17.50;45.40;;;;;;5067282;28;47331;-16
2022/04/07 09:11:01;;;;;;;2.47;0.50;;;17.50;45.40;;;;;;5066300;28;47877;-15
2022/04/07 09:13:31;;;;;;;1.83;0.20;;;17.50;45.50;;;;;;5064805;28;47451;-16
2022/04/07 09:15:59;;;;;;;3.63;0.60;;;17.50;45.60;;;;;;5066157;28;46920;-15
2022/04/07 09:18:26;;;;;;;1.75;0.50;;;17.50;45.40;;;;;;5066555;28;47395;-17
2022/04/07 09:20:53;;;;;;;2.05;0.52;;;17.50;45.60;;;;;;5066662;28;47845;-16
2022/04/07 09:23:19;;;;;;;0.95;0.25;;;17.50;45.60;;;;;;5067130;28;47012;-15
2022/04/07 09:25:49;;;;;;;5.07;0.20;;;17.50;45.60;;;;;;5067700;28;46819;-17
2022/04/07 09:28:26;;;;;;;0.45;0.30;;;17.50;45.60;;;;;;5067525;28;47164;-15
2022/04/07 09:30:52;;;;;;;2.00;0.57;;;17.50;45.50;;;;;;5067127;28;48103;-20
2022/04/07 09:33:22;;;;;;;1.10;0.50;;;17.50;45.60;;;;;;5066322;28;47590;-20
2022/04/07 09:35:59;;;;;;;0.47;0.30;;;17.60;45.50;;;;;;5047845;28;46900;-19
2022/04/07 09:38:26;;;;;;;2.05;0.50;;;17.60;45.50;;;;;;5066748;28;47032;-21
2022/04/07 09:40:54;;;;;;;0.28;0.28;;;17.60;45.50;;;;;;5066106;28;47087;-20
2022/04/07 09:43:21;;;;;;;0.40;0.40;;;17.60;45.50;;;;;;5063950;28;46821;-20
2022/04/07 09:45:48;;;;;;;0.70;0.30;;;17.60;45.50;;;;;;5066291;28;46844;-21
2022/04/07 09:48:18;;;;;;;0.45;0.30;;;17.60;45.60;;;;;;5066288;28;46977;-20
2022/04/07 09:51:01;;;;;;;0.30;0.30;;;17.60;45.70;;;;;;5066264;28;48651;-21
2022/04/07 09:53:28;;;;;;;0.20;0.20;;;17.60;45.70;;;;;;5064196;28;46962;-20
2022/04/07 09:55:57;;;;;;;0.47;0.40;;;17.60;45.70;;;;;;5066505;28;46864;-21
2022/04/07 09:58:23;;;;;;;0.30;0.30;;;17.60;45.50;;;;;;5066535;28;46955;-20
2022/04/07 10:00:50;;;;;;;0.45;0.20;;;17.60;45.70;;;;;;5066596;28;48884;-16
2022/04/07 10:03:17;;;;;;;0.35;0.30;;;17.60;45.80;;;;;;5066534;28;47097;-16
2022/04/07 10:05:44;;;;;;;0.38;0.38;;;17.60;45.50;;;;;;5066336;28;46868;-15
2022/04/07 10:08:11;;;;;;;0.30;0.30;;;17.60;45.30;;;;;;5066187;28;46930;-15
2022/04/07 10:10:38;;;;;;;1.27;0.20;;;17.60;45.50;;;;;;5065534;28;49114;-16
2022/04/07 10:13:06;;;;;;;0.20;0.20;;;17.60;45.40;;;;;;5066280;28;47154;-16
2022/04/07 10:15:33;;;;;;;2.78;0.30;;;17.70;45.60;;;;;;5066554;28;46879;-15
2022/04/07 10:18:02;;;;;;;0.30;0.30;;;17.70;45.60;;;;;;5066231;28;46827;-15
2022/04/07 10:20:32;;;;;;;0.40;0.40;;;17.70;45.60;;;;;;5066083;28;48666;-16
2022/04/07 10:23:05;;;;;;;0.10;0.10;;;17.70;45.60;;;;;;5066055;28;47138;-15
2022/04/07 10:25:32;;;;;;;1.55;0.32;;;17.70;45.60;;;;;;5066071;28;46876;-16
2022/04/07 10:28:00;;;;;;;0.40;0.22;;;17.70;45.70;;;;;;5065621;28;47315;-15
2022/04/07 10:30:30;;;;;;;0.73;0.10;;;17.70;45.80;;;;;;5066315;28;48057;-16
2022/04/07 10:32:58;;;;;;;0.25;0.22;;;17.70;45.80;;;;;;5066500;28;46895;-16
2022/04/07 10:35:35;;;;;;;2.03;0.38;;;17.70;45.60;;;;;;5066102;28;46987;-15
2022/04/07 10:38:03;;;;;;;0.60;0.30;;;17.70;45.70;;;;;;5066015;28;47340;-16
2022/04/07 10:40:34;;;;;;;1.65;0.20;;;17.70;45.90;;;;;;5065864;28;48222;-15
2022/04/07 10:43:09;;;;;;;1.15;0.30;;;17.70;46.10;;;;;;5065232;28;47080;-15
2022/04/07 10:45:37;;;;;;;0.30;0.30;;;17.70;46.10;;;;;;5065392;28;46858;-15
2022/04/07 10:48:25;;;;;;;0.82;0.70;;;17.60;46.00;;;;;;5065712;28;46966;-15
2022/04/07 10:50:52;;;;;;;0.70;0.40;;;17.70;46.00;;;;;;5074965;27;48892;-16
2022/04/07 10:53:25;;;;;;;1.27;0.30;;;17.70;46.10;;;;;;5084983;28;47017;-16
2022/04/07 10:56:12;;;;;;;2.10;0.35;;;17.70;46.10;;;;;;5086420;28;46876;-16
2022/04/07 10:58:47;;;;;;;1.23;0.40;;;17.60;46.20;;;;;;5072733;28;46981;-16
2022/04/07 11:01:56;;;;;;;2.45;0.45;;;17.70;46.10;;;;;;5072313;28;46975;-15
2022/04/07 11:04:42;;;;;;;0.75;0.50;;;17.70;46.20;;;;;;5064418;28;46956;-16
2022/04/07 11:07:22;;;;;;;0.98;0.40;;;17.60;46.20;;;;;;5064780;28;46906;-15
2022/04/07 11:10:11;;;;;;;2.42;0.40;;;17.70;46.20;;;;;;5049630;28;47126;-15
2022/04/07 11:12:39;;;;;;;0.40;0.40;;;17.70;46.20;;;;;;5063949;28;48107;-16
2022/04/07 11:15:38;;;;;;;0.73;0.45;;;17.60;46.90;;;;;;5065492;28;47001;-16
2022/04/07 11:18:34;;;;;;;2.80;0.45;;;17.60;46.30;;;;;;5060005;28;46991;-16
2022/04/07 11:21:03;;;;;;;0.50;0.50;;;17.60;46.60;;;;;;5064336;28;47335;-16
2022/04/07 11:23:51;;;;;;;1.10;0.50;;;17.70;46.40;;;;;;5064993;28;48177;-15
2022/04/07 11:26:22;;;;;;;0.22;0.22;;;17.70;46.30;;;;;;5065558;28;46899;-15
2022/04/07 11:29:00;;;;;;;0.65;0.40;;;17.70;46.30;;;;;;5065274;28;46894;-15
2022/04/07 11:31:48;;;;;;;0.73;0.40;;;17.60;46.40;;;;;;5065012;28;47009;-15
2022/04/07 11:34:53;;;;;;;1.27;0.50;;;17.70;46.40;;;;;;5065451;28;48132;-15
2022/04/07 11:37:22;;;;;;;0.80;0.50;;;17.70;46.40;;;;;;5065254;28;47143;-15
2022/04/07 11:39:51;;;;;;;0.95;0.52;;;17.70;46.40;;;;;;5063789;28;47105;-16
2022/04/07 11:42:18;;;;;;;1.38;0.30;;;17.70;46.30;;;;;;5058666;28;47131;-16
2022/04/07 11:44:46;;;;;;;0.25;0.25;;;17.70;46.40;;;;;;5064543;28;47822;-17
2022/04/07 11:47:22;;;;;;;0.43;0.40;;;17.70;46.40;;;;;;5064845;28;46934;-15
2022/04/07 11:49:49;;;;;;;1.35;0.40;;;17.70;46.50;;;;;;5065263;28;46794;-13
2022/04/07 11:52:17;;;;;;;1.13;0.32;;;17.70;46.40;;;;;;5064258;28;47355;-13
2022/04/07 11:54:44;;;;;;;0.57;0.50;;;17.70;46.50;;;;;;5063549;28;48164;-14
2022/04/07 11:57:11;;;;;;;1.30;0.60;;;17.70;46.60;;;;;;5064263;28;46857;-14
2022/04/07 11:59:38;;;;;;;4.75;0.40;;;17.70;46.70;;;;;;5065117;28;46815;-13
2022/04/07 12:02:05;;;;;;;1.42;0.50;;;17.70;46.70;;;;;;5065111;28;47162;-14
2022/04/07 12:04:32;;;;;;;2.40;0.50;;;17.70;46.80;;;;;;5068062;28;48889;-14
2022/04/07 12:07:00;;;;;;;4.20;0.52;;;17.70;46.90;;;;;;5068625;28;46977;-14
2022/04/07 12:09:28;;;;;;;1.35;0.40;;;17.80;46.90;;;;;;5068163;28;46919;-13
2022/04/07 12:11:55;;;;;;;0.60;0.60;;;17.80;46.90;;;;;;5068468;28;46925;-13
2022/04/07 12:14:24;;;;;;;0.68;0.50;;;17.80;47.00;;;;;;5067586;28;49148;-13
2022/04/07 12:16:52;;;;;;;0.32;0.32;;;17.80;47.00;;;;;;5066661;28;47162;-14
2022/04/07 12:19:18;;;;;;;2.42;0.45;;;17.90;47.00;;;;;;5067478;28;46991;-15
2022/04/07 12:21:55;;;;;;;1.63;0.30;;;17.90;47.30;;;;;;5067961;28;47260;-15
2022/04/07 12:24:22;;;;;;;3.97;0.52;;;17.80;47.00;;;;;;5068289;28;48783;-15
2022/04/07 12:26:51;;;;;;;0.75;0.40;;;17.90;47.20;;;;;;5068108;28;46815;-14
2022/04/07 12:29:18;;;;;;;1.77;0.40;;;17.90;47.30;;;;;;5068232;28;47091;-14
2022/04/07 12:31:45;;;;;;;23.63;2.78;;;17.90;47.40;;;;;;5072982;28;46922;-16
2022/04/07 12:34:12;;;;;;;39.40;4.65;;;17.90;47.60;;;;;;5070535;28;47918;-16
2022/04/07 12:36:40;;;;;;;30.90;4.97;;;17.90;48.10;;;;;;5064467;28;47077;-15
2022/04/07 12:39:08;;;;;;;27.08;4.43;;;17.90;48.10;;;;;;5066027;28;46789;-16
2022/04/07 12:42:04;;;;;;;23.48;3.85;;;17.90;47.60;;;;;;5064041;28;47150;-16
2022/04/07 12:44:34;;;;;;;18.52;3.58;;;18.00;47.10;;;;;;5070676;28;46864;-16
2022/04/07 12:47:04;;;;;;;22.85;3.55;;;18.00;47.30;;;;;;5065337;28;46972;-15
2022/04/07 12:49:32;;;;;;;16.58;2.97;;;18.10;47.20;;;;;;5064493;28;46970;-15
2022/04/07 12:52:03;;;;;;;14.38;2.65;;;18.10;47.30;;;;;;5067231;28;46938;-16